sensor_id;sensor_type;location;lat;lon;timestamp;pressure;altitude;pressure_sealevel;temperature;humidity
39341;BME280;25059;52.132;21.062;2023-04-15T00:02:18;99585.63;;;12.42;100.00
39341;BME280;25059;52.132;21.062;2023-04-15T00:05:04;99586.47;;;12.43;100.00
39341;BME280;25059;52.132;21.062;2023-04-15T00:07:49;99580.56;;;12.23;100.00
39341;BME280;25059;52.132;21.062;2023-04-15T00:10:34;99569.94;;;11.95;100.00
39341;BME280;25059;52.132;21.062;2023-04-15T00:13:19;99575.63;;;11.72;100.00
39341;BME280;25059;52.132;21.062;2023-04-15T00:16:04;99571.56;;;11.82;100.00
39341;BME280;25059;52.132;21.062;2023-04-15T00:18:49;99585.22;;;11.88;100.00
39341;BME280;25059;52.132;21.062;2023-04-15T00:21:35;99586.50;;;11.81;100.00
39341;BME280;25059;52.132;21.062;2023-04-15T00:24:19;99585.41;;;11.85;100.00
39341;BME280;25059;52.132;21.062;2023-04-15T00:27:04;99566.03;;;11.55;100.00
39341;BME280;25059;52.132;21.062;2023-04-15T00:29:49;99573.66;;;11.59;100.00
39341;BME280;25059;52.132;21.062;2023-04-15T00:32:34;99587.00;;;11.72;100.00
39341;BME280;25059;52.132;21.062;2023-04-15T00:35:18;99584.38;;;11.72;100.00
39341;BME280;25059;52.132;21.062;2023-04-15T00:38:05;99570.00;;;11.62;100.00
39341;BME280;25059;52.132;21.062;2023-04-15T00:40:51;99574.09;;;11.68;100.00
39341;BME280;25059;52.132;21.062;2023-04-15T00:43:36;99569.09;;;11.79;100.00
39341;BME280;25059;52.132;21.062;2023-04-15T00:46:22;99577.59;;;11.84;100.00
39341;BME280;25059;52.132;21.062;2023-04-15T00:49:06;99571.72;;;11.94;100.00
39341;BME280;25059;52.132;21.062;2023-04-15T00:51:51;99574.34;;;11.94;100.00
39341;BME280;25059;52.132;21.062;2023-04-15T00:54:36;99571.59;;;12.12;100.00
39341;BME280;25059;52.132;21.062;2023-04-15T00:57:21;99570.97;;;12.22;100.00
39341;BME280;25059;52.132;21.062;2023-04-15T01:00:06;99578.56;;;12.13;100.00
39341;BME280;25059;52.132;21.062;2023-04-15T01:02:52;99581.50;;;11.92;100.00
39341;BME280;25059;52.132;21.062;2023-04-15T01:05:37;99581.16;;;11.83;100.00
39341;BME280;25059;52.132;21.062;2023-04-15T01:08:27;99581.34;;;11.80;100.00
39341;BME280;25059;52.132;21.062;2023-04-15T01:11:12;99580.78;;;11.73;100.00
39341;BME280;25059;52.132;21.062;2023-04-15T01:13:57;99577.22;;;11.74;100.00
39341;BME280;25059;52.132;21.062;2023-04-15T01:16:42;99575.31;;;11.78;100.00
39341;BME280;25059;52.132;21.062;2023-04-15T01:19:28;99582.34;;;11.77;100.00
39341;BME280;25059;52.132;21.062;2023-04-15T01:22:13;99579.72;;;11.77;100.00
39341;BME280;25059;52.132;21.062;2023-04-15T01:25:09;99576.38;;;11.58;100.00
39341;BME280;25059;52.132;21.062;2023-04-15T01:27:54;99576.97;;;11.63;100.00
39341;BME280;25059;52.132;21.062;2023-04-15T01:30:39;99578.25;;;11.72;100.00
39341;BME280;25059;52.132;21.062;2023-04-15T01:33:23;99582.66;;;11.71;100.00
39341;BME280;25059;52.132;21.062;2023-04-15T01:36:08;99574.09;;;11.68;100.00
39341;BME280;25059;52.132;21.062;2023-04-15T01:38:54;99566.47;;;11.79;100.00
39341;BME280;25059;52.132;21.062;2023-04-15T01:41:39;99578.63;;;11.81;100.00
39341;BME280;25059;52.132;21.062;2023-04-15T01:44:25;99578.09;;;11.90;100.00
39341;BME280;25059;52.132;21.062;2023-04-15T01:47:09;99573.59;;;11.92;100.00
39341;BME280;25059;52.132;21.062;2023-04-15T01:49:55;99570.94;;;11.92;100.00
39341;BME280;25059;52.132;21.062;2023-04-15T01:52:40;99575.22;;;11.79;100.00
39341;BME280;25059;52.132;21.062;2023-04-15T01:55:24;99581.00;;;11.86;100.00
39341;BME280;25059;52.132;21.062;2023-04-15T01:58:09;99581.66;;;11.74;100.00
39341;BME280;25059;52.132;21.062;2023-04-15T02:00:54;99579.78;;;11.76;100.00
39341;BME280;25059;52.132;21.062;2023-04-15T02:03:38;99580.06;;;11.87;100.00
39341;BME280;25059;52.132;21.062;2023-04-15T02:06:23;99570.34;;;11.72;100.00
39341;BME280;25059;52.132;21.062;2023-04-15T02:09:07;99570.00;;;11.62;100.00
39341;BME280;25059;52.132;21.062;2023-04-15T02:11:52;99567.13;;;11.51;100.00
39341;BME280;25059;52.132;21.062;2023-04-15T02:14:37;99571.38;;;11.69;100.00
39341;BME280;25059;52.132;21.062;2023-04-15T02:17:21;99565.16;;;11.70;100.00
39341;BME280;25059;52.132;21.062;2023-04-15T02:20:10;99574.75;;;11.71;100.00
39341;BME280;25059;52.132;21.062;2023-04-15T02:22:55;99564.31;;;11.54;100.00
39341;BME280;25059;52.132;21.062;2023-04-15T02:25:40;99569.50;;;11.71;100.00
39341;BME280;25059;52.132;21.062;2023-04-15T02:28:24;99568.56;;;11.88;100.00
39341;BME280;25059;52.132;21.062;2023-04-15T02:31:09;99572.06;;;11.88;100.00
39341;BME280;25059;52.132;21.062;2023-04-15T02:33:54;99556.78;;;11.79;100.00
39341;BME280;25059;52.132;21.062;2023-04-15T02:36:39;99566.63;;;11.91;100.00
39341;BME280;25059;52.132;21.062;2023-04-15T02:39:23;99570.94;;;11.92;100.00
39341;BME280;25059;52.132;21.062;2023-04-15T02:42:08;99572.13;;;12.03;100.00
39341;BME280;25059;52.132;21.062;2023-04-15T02:44:53;99562.28;;;11.90;100.00
39341;BME280;25059;52.132;21.062;2023-04-15T02:47:38;99564.41;;;11.68;100.00
39341;BME280;25059;52.132;21.062;2023-04-15T02:50:24;99546.72;;;11.70;100.00
39341;BME280;25059;52.132;21.062;2023-04-15T02:53:11;99552.00;;;11.86;100.00
39341;BME280;25059;52.132;21.062;2023-04-15T02:55:56;99561.09;;;11.64;100.00
39341;BME280;25059;52.132;21.062;2023-04-15T02:58:41;99564.59;;;11.81;100.00
39341;BME280;25059;52.132;21.062;2023-04-15T03:01:26;99552.34;;;11.64;100.00
39341;BME280;25059;52.132;21.062;2023-04-15T03:04:11;99541.06;;;11.62;100.00
39341;BME280;25059;52.132;21.062;2023-04-15T03:06:56;99554.38;;;11.75;100.00
39341;BME280;25059;52.132;21.062;2023-04-15T03:09:41;99553.13;;;11.82;100.00
39341;BME280;25059;52.132;21.062;2023-04-15T03:12:25;99549.63;;;11.81;100.00
39341;BME280;25059;52.132;21.062;2023-04-15T03:15:11;99568.75;;;11.85;100.00
39341;BME280;25059;52.132;21.062;2023-04-15T03:17:55;99565.44;;;11.81;100.00
39341;BME280;25059;52.132;21.062;2023-04-15T03:20:40;99565.00;;;11.89;100.00
39341;BME280;25059;52.132;21.062;2023-04-15T03:23:25;99562.97;;;11.78;100.00
39341;BME280;25059;52.132;21.062;2023-04-15T03:26:09;99546.75;;;11.86;100.00
39341;BME280;25059;52.132;21.062;2023-04-15T03:28:54;99561.00;;;11.98;100.00
39341;BME280;25059;52.132;21.062;2023-04-15T03:31:39;99556.66;;;11.96;100.00
39341;BME280;25059;52.132;21.062;2023-04-15T03:34:25;99559.03;;;12.01;100.00
39341;BME280;25059;52.132;21.062;2023-04-15T03:37:10;99562.75;;;12.13;100.00
39341;BME280;25059;52.132;21.062;2023-04-15T03:39:55;99566.72;;;12.20;100.00
39341;BME280;25059;52.132;21.062;2023-04-15T03:42:40;99563.88;;;12.09;100.00
39341;BME280;25059;52.132;21.062;2023-04-15T03:45:24;99555.03;;;12.10;100.00
39341;BME280;25059;52.132;21.062;2023-04-15T03:48:09;99556.53;;;11.84;100.00
39341;BME280;25059;52.132;21.062;2023-04-15T03:50:54;99561.84;;;11.98;100.00
39341;BME280;25059;52.132;21.062;2023-04-15T03:53:39;99557.59;;;11.95;100.00
39341;BME280;25059;52.132;21.062;2023-04-15T03:56:24;99565.81;;;12.05;100.00
39341;BME280;25059;52.132;21.062;2023-04-15T03:59:09;99567.78;;;12.02;100.00
39341;BME280;25059;52.132;21.062;2023-04-15T04:01:53;99568.28;;;12.08;100.00
39341;BME280;25059;52.132;21.062;2023-04-15T04:04:38;99559.31;;;11.81;100.00
39341;BME280;25059;52.132;21.062;2023-04-15T04:07:23;99565.34;;;11.83;100.00
39341;BME280;25059;52.132;21.062;2023-04-15T04:10:12;99576.75;;;11.83;100.00
39341;BME280;25059;52.132;21.062;2023-04-15T04:12:56;99575.38;;;11.60;100.00
39341;BME280;25059;52.132;21.062;2023-04-15T04:15:41;99577.91;;;11.62;100.00
39341;BME280;25059;52.132;21.062;2023-04-15T04:18:28;99572.22;;;11.70;100.00
39341;BME280;25059;52.132;21.062;2023-04-15T04:21:13;99576.38;;;11.74;100.00
39341;BME280;25059;52.132;21.062;2023-04-15T04:23:57;99571.31;;;11.86;100.00
39341;BME280;25059;52.132;21.062;2023-04-15T04:26:42;99564.78;;;11.78;100.00
39341;BME280;25059;52.132;21.062;2023-04-15T04:29:26;99563.97;;;11.91;100.00
39341;BME280;25059;52.132;21.062;2023-04-15T04:32:11;99571.19;;;12.04;100.00
39341;BME280;25059;52.132;21.062;2023-04-15T04:34:55;99577.88;;;12.09;100.00
39341;BME280;25059;52.132;21.062;2023-04-15T04:37:40;99576.38;;;12.05;100.00
39341;BME280;25059;52.132;21.062;2023-04-15T04:40:25;99570.34;;;12.03;100.00
39341;BME280;25059;52.132;21.062;2023-04-15T04:43:09;99563.59;;;12.13;100.00
39341;BME280;25059;52.132;21.062;2023-04-15T04:45:54;99567.53;;;12.06;100.00
39341;BME280;25059;52.132;21.062;2023-04-15T04:48:38;99570.06;;;12.08;100.00
39341;BME280;25059;52.132;21.062;2023-04-15T04:51:23;99574.94;;;12.00;100.00
39341;BME280;25059;52.132;21.062;2023-04-15T04:54:08;99573.84;;;11.88;100.00
39341;BME280;25059;52.132;21.062;2023-04-15T04:56:52;99562.28;;;11.90;100.00
39341;BME280;25059;52.132;21.062;2023-04-15T04:59:38;99575.69;;;12.02;100.00
39341;BME280;25059;52.132;21.062;2023-04-15T05:02:22;99571.81;;;11.93;100.00
39341;BME280;25059;52.132;21.062;2023-04-15T05:05:07;99569.00;;;11.80;100.00
39341;BME280;25059;52.132;21.062;2023-04-15T05:07:52;99571.22;;;11.88;100.00
39341;BME280;25059;52.132;21.062;2023-04-15T05:10:37;99570.91;;;12.08;100.00
39341;BME280;25059;52.132;21.062;2023-04-15T05:13:21;99575.53;;;12.05;100.00
39341;BME280;25059;52.132;21.062;2023-04-15T05:16:09;99561.41;;;12.06;100.00
39341;BME280;25059;52.132;21.062;2023-04-15T05:18:53;99579.94;;;12.04;100.00
39341;BME280;25059;52.132;21.062;2023-04-15T05:21:38;99564.50;;;11.82;100.00
39341;BME280;25059;52.132;21.062;2023-04-15T05:24:22;99576.91;;;11.96;100.00
39341;BME280;25059;52.132;21.062;2023-04-15T05:27:16;99579.78;;;11.91;100.00
39341;BME280;25059;52.132;21.062;2023-04-15T05:30:02;99579.78;;;11.91;100.00
39341;BME280;25059;52.132;21.062;2023-04-15T05:32:47;99576.56;;;11.86;100.00
39341;BME280;25059;52.132;21.062;2023-04-15T05:35:31;99581.06;;;12.00;100.00
39341;BME280;25059;52.132;21.062;2023-04-15T05:38:16;99585.22;;;12.04;100.00
39341;BME280;25059;52.132;21.062;2023-04-15T05:41:01;99574.75;;;12.03;100.00
39341;BME280;25059;52.132;21.062;2023-04-15T05:43:45;99561.03;;;11.82;100.00
39341;BME280;25059;52.132;21.062;2023-04-15T05:46:31;99582.41;;;12.07;100.00
39341;BME280;25059;52.132;21.062;2023-04-15T05:49:16;99593.88;;;12.06;100.00
39341;BME280;25059;52.132;21.062;2023-04-15T05:52:01;99577.34;;;12.18;100.00
39341;BME280;25059;52.132;21.062;2023-04-15T05:54:45;99575.97;;;12.27;100.00
39341;BME280;25059;52.132;21.062;2023-04-15T06:01:04;99581.81;;;12.32;100.00
39341;BME280;25059;52.132;21.062;2023-04-15T06:03:49;99581.91;;;12.31;100.00
39341;BME280;25059;52.132;21.062;2023-04-15T06:06:34;99586.81;;;12.37;100.00
39341;BME280;25059;52.132;21.062;2023-04-15T06:09:19;99583.22;;;12.23;100.00
39341;BME280;25059;52.132;21.062;2023-04-15T06:12:04;99579.28;;;12.31;100.00
39341;BME280;25059;52.132;21.062;2023-04-15T06:15:18;99580.84;;;12.19;100.00
39341;BME280;25059;52.132;21.062;2023-04-15T06:18:03;99599.78;;;12.25;100.00
39341;BME280;25059;52.132;21.062;2023-04-15T06:20:48;99598.09;;;12.24;100.00
39341;BME280;25059;52.132;21.062;2023-04-15T06:23:34;99584.41;;;12.18;100.00
39341;BME280;25059;52.132;21.062;2023-04-15T06:26:19;99587.53;;;12.24;100.00
39341;BME280;25059;52.132;21.062;2023-04-15T06:29:04;99595.28;;;12.27;100.00
39341;BME280;25059;52.132;21.062;2023-04-15T06:31:49;99582.25;;;12.54;100.00
39341;BME280;25059;52.132;21.062;2023-04-15T06:34:33;99590.66;;;12.61;100.00
39341;BME280;25059;52.132;21.062;2023-04-15T06:37:18;99596.56;;;12.50;100.00
39341;BME280;25059;52.132;21.062;2023-04-15T06:40:04;99595.34;;;12.56;100.00
39341;BME280;25059;52.132;21.062;2023-04-15T06:42:49;99587.66;;;12.81;100.00
39341;BME280;25059;52.132;21.062;2023-04-15T06:45:34;99596.03;;;12.59;100.00
39341;BME280;25059;52.132;21.062;2023-04-15T06:48:18;99607.56;;;12.87;100.00
39341;BME280;25059;52.132;21.062;2023-04-15T06:51:03;99594.91;;;12.64;100.00
39341;BME280;25059;52.132;21.062;2023-04-15T06:53:48;99604.06;;;12.72;100.00
39341;BME280;25059;52.132;21.062;2023-04-15T06:56:32;99605.66;;;12.75;100.00
39341;BME280;25059;52.132;21.062;2023-04-15T06:59:18;99610.84;;;12.90;100.00
39341;BME280;25059;52.132;21.062;2023-04-15T07:02:02;99597.75;;;12.75;100.00
39341;BME280;25059;52.132;21.062;2023-04-15T07:04:46;99607.75;;;12.84;100.00
39341;BME280;25059;52.132;21.062;2023-04-15T07:07:32;99621.88;;;12.97;100.00
39341;BME280;25059;52.132;21.062;2023-04-15T07:10:17;99624.06;;;13.05;100.00
39341;BME280;25059;52.132;21.062;2023-04-15T07:13:02;99613.88;;;12.99;100.00
39341;BME280;25059;52.132;21.062;2023-04-15T07:15:47;99620.19;;;12.82;100.00
39341;BME280;25059;52.132;21.062;2023-04-15T07:18:33;99628.78;;;13.00;100.00
39341;BME280;25059;52.132;21.062;2023-04-15T07:21:18;99619.25;;;12.97;100.00
39341;BME280;25059;52.132;21.062;2023-04-15T07:24:06;99618.50;;;12.95;100.00
39341;BME280;25059;52.132;21.062;2023-04-15T07:26:50;99622.56;;;13.01;100.00
39341;BME280;25059;52.132;21.062;2023-04-15T07:29:35;99629.63;;;13.00;100.00
39341;BME280;25059;52.132;21.062;2023-04-15T07:32:20;99611.81;;;12.89;100.00
39341;BME280;25059;52.132;21.062;2023-04-15T07:35:04;99619.63;;;12.91;100.00
39341;BME280;25059;52.132;21.062;2023-04-15T07:37:49;99621.81;;;13.13;100.00
39341;BME280;25059;52.132;21.062;2023-04-15T07:40:36;99614.50;;;13.32;100.00
39341;BME280;25059;52.132;21.062;2023-04-15T07:43:20;99617.13;;;13.46;100.00
39341;BME280;25059;52.132;21.062;2023-04-15T07:46:05;99618.53;;;13.38;100.00
39341;BME280;25059;52.132;21.062;2023-04-15T07:48:50;99611.34;;;13.54;100.00
39341;BME280;25059;52.132;21.062;2023-04-15T07:51:34;99620.59;;;13.61;100.00
39341;BME280;25059;52.132;21.062;2023-04-15T07:54:19;99617.88;;;13.48;100.00
39341;BME280;25059;52.132;21.062;2023-04-15T07:57:03;99623.81;;;13.38;100.00
39341;BME280;25059;52.132;21.062;2023-04-15T07:59:48;99624.09;;;13.47;100.00
39341;BME280;25059;52.132;21.062;2023-04-15T08:02:33;99622.31;;;13.48;100.00
39341;BME280;25059;52.132;21.062;2023-04-15T08:05:18;99627.03;;;13.43;100.00
39341;BME280;25059;52.132;21.062;2023-04-15T08:08:03;99626.28;;;13.41;100.00
39341;BME280;25059;52.132;21.062;2023-04-15T08:10:48;99622.69;;;13.28;100.00
39341;BME280;25059;52.132;21.062;2023-04-15T08:13:34;99614.47;;;13.46;100.00
39341;BME280;25059;52.132;21.062;2023-04-15T08:16:21;99625.13;;;13.45;100.00
39341;BME280;25059;52.132;21.062;2023-04-15T08:19:09;99617.97;;;13.47;100.00
39341;BME280;25059;52.132;21.062;2023-04-15T08:21:54;99625.88;;;13.47;100.00
39341;BME280;25059;52.132;21.062;2023-04-15T08:24:40;99622.06;;;13.79;100.00
39341;BME280;25059;52.132;21.062;2023-04-15T08:27:24;99614.53;;;13.73;100.00
39341;BME280;25059;52.132;21.062;2023-04-15T08:30:09;99613.00;;;13.83;100.00
39341;BME280;25059;52.132;21.062;2023-04-15T08:32:54;99628.34;;;13.91;100.00
39341;BME280;25059;52.132;21.062;2023-04-15T08:35:38;99624.97;;;13.89;100.00
39341;BME280;25059;52.132;21.062;2023-04-15T08:38:23;99626.56;;;13.92;100.00
39341;BME280;25059;52.132;21.062;2023-04-15T08:41:19;99618.75;;;14.17;100.00
39341;BME280;25059;52.132;21.062;2023-04-15T08:44:08;99617.75;;;14.05;100.00
39341;BME280;25059;52.132;21.062;2023-04-15T08:46:53;99626.72;;;14.03;100.00
39341;BME280;25059;52.132;21.062;2023-04-15T08:49:39;99630.94;;;14.32;100.00
39341;BME280;25059;52.132;21.062;2023-04-15T08:52:25;99631.69;;;14.61;100.00
39341;BME280;25059;52.132;21.062;2023-04-15T08:55:11;99626.41;;;14.61;100.00
39341;BME280;25059;52.132;21.062;2023-04-15T08:57:56;99631.50;;;14.64;100.00
39341;BME280;25059;52.132;21.062;2023-04-15T09:00:41;99623.84;;;14.60;100.00
39341;BME280;25059;52.132;21.062;2023-04-15T09:03:27;99618.28;;;14.37;100.00
39341;BME280;25059;52.132;21.062;2023-04-15T09:06:12;99634.09;;;14.51;100.00
39341;BME280;25059;52.132;21.062;2023-04-15T09:08:57;99625.63;;;14.19;100.00
39341;BME280;25059;52.132;21.062;2023-04-15T09:11:41;99633.19;;;14.38;100.00
39341;BME280;25059;52.132;21.062;2023-04-15T09:14:27;99622.16;;;14.32;100.00
39341;BME280;25059;52.132;21.062;2023-04-15T09:17:12;99620.69;;;14.28;100.00
39341;BME280;25059;52.132;21.062;2023-04-15T09:20:13;99632.81;;;14.44;100.00
39341;BME280;25059;52.132;21.062;2023-04-15T09:22:58;99628.47;;;14.16;100.00
39341;BME280;25059;52.132;21.062;2023-04-15T09:25:44;99611.41;;;14.08;100.00
39341;BME280;25059;52.132;21.062;2023-04-15T09:28:30;99622.53;;;14.13;100.00
39341;BME280;25059;52.132;21.062;2023-04-15T09:31:16;99630.16;;;14.17;100.00
39341;BME280;25059;52.132;21.062;2023-04-15T09:34:00;99628.19;;;13.80;100.00
39341;BME280;25059;52.132;21.062;2023-04-15T09:39:49;99638.59;;;14.10;100.00
39341;BME280;25059;52.132;21.062;2023-04-15T09:42:35;99636.69;;;14.39;100.00
39341;BME280;25059;52.132;21.062;2023-04-15T09:45:21;99630.84;;;14.34;100.00
39341;BME280;25059;52.132;21.062;2023-04-15T09:48:16;99621.47;;;14.82;100.00
39341;BME280;25059;52.132;21.062;2023-04-15T09:51:01;99624.63;;;14.87;100.00
39341;BME280;25059;52.132;21.062;2023-04-15T09:53:45;99637.75;;;14.76;100.00
39341;BME280;25059;52.132;21.062;2023-04-15T09:56:38;99633.06;;;14.67;100.00
39341;BME280;25059;52.132;21.062;2023-04-15T09:59:29;99639.47;;;14.90;100.00
39341;BME280;25059;52.132;21.062;2023-04-15T10:02:14;99613.91;;;14.63;100.00
39341;BME280;25059;52.132;21.062;2023-04-15T10:05:02;99651.69;;;14.65;100.00
39341;BME280;25059;52.132;21.062;2023-04-15T10:07:47;99649.31;;;14.21;100.00
39341;BME280;25059;52.132;21.062;2023-04-15T10:10:33;99646.78;;;14.19;100.00
39341;BME280;25059;52.132;21.062;2023-04-15T10:13:20;99644.28;;;14.31;100.00
39341;BME280;25059;52.132;21.062;2023-04-15T10:16:10;99644.13;;;14.46;100.00
39341;BME280;25059;52.132;21.062;2023-04-15T10:18:55;99644.19;;;14.59;100.00
39341;BME280;25059;52.132;21.062;2023-04-15T10:21:42;99642.31;;;14.74;100.00
39341;BME280;25059;52.132;21.062;2023-04-15T10:24:30;99628.75;;;14.39;100.00
39341;BME280;25059;52.132;21.062;2023-04-15T10:27:16;99637.69;;;13.97;100.00
39341;BME280;25059;52.132;21.062;2023-04-15T10:30:00;99640.88;;;14.29;100.00
39341;BME280;25059;52.132;21.062;2023-04-15T10:32:47;99624.63;;;14.87;100.00
39341;BME280;25059;52.132;21.062;2023-04-15T10:35:33;99651.41;;;15.71;100.00
39341;BME280;25059;52.132;21.062;2023-04-15T10:38:36;99635.09;;;16.25;100.00
39341;BME280;25059;52.132;21.062;2023-04-15T10:41:23;99640.97;;;16.65;100.00
39341;BME280;25059;52.132;21.062;2023-04-15T10:44:08;99641.97;;;16.75;100.00
39341;BME280;25059;52.132;21.062;2023-04-15T10:46:53;99629.66;;;16.74;100.00
39341;BME280;25059;52.132;21.062;2023-04-15T10:49:44;99638.28;;;16.30;100.00
39341;BME280;25059;52.132;21.062;2023-04-15T10:52:29;99635.78;;;15.92;100.00
39341;BME280;25059;52.132;21.062;2023-04-15T10:55:20;99640.84;;;15.95;100.00
39341;BME280;25059;52.132;21.062;2023-04-15T10:58:04;99642.47;;;15.85;100.00
39341;BME280;25059;52.132;21.062;2023-04-15T11:00:52;99651.00;;;15.52;100.00
39341;BME280;25059;52.132;21.062;2023-04-15T11:03:38;99644.03;;;15.00;100.00
39341;BME280;25059;52.132;21.062;2023-04-15T11:06:42;99651.91;;;14.62;100.00
39341;BME280;25059;52.132;21.062;2023-04-15T11:09:31;99643.94;;;14.49;100.00
39341;BME280;25059;52.132;21.062;2023-04-15T11:12:18;99651.59;;;14.40;100.00
39341;BME280;25059;52.132;21.062;2023-04-15T11:15:24;99664.31;;;14.74;100.00
39341;BME280;25059;52.132;21.062;2023-04-15T11:20:59;99643.47;;;15.46;100.00
39341;BME280;25059;52.132;21.062;2023-04-15T11:23:44;99660.25;;;15.96;100.00
39341;BME280;25059;52.132;21.062;2023-04-15T11:26:31;99644.81;;;16.37;100.00
39341;BME280;25059;52.132;21.062;2023-04-15T11:29:17;99657.53;;;16.69;100.00
39341;BME280;25059;52.132;21.062;2023-04-15T11:32:05;99651.34;;;17.15;100.00
39341;BME280;25059;52.132;21.062;2023-04-15T11:34:51;99655.19;;;16.99;100.00
39341;BME280;25059;52.132;21.062;2023-04-15T11:37:35;99655.13;;;17.46;100.00
39341;BME280;25059;52.132;21.062;2023-04-15T11:40:25;99665.00;;;18.11;100.00
39341;BME280;25059;52.132;21.062;2023-04-15T11:43:15;99661.09;;;18.58;100.00
39341;BME280;25059;52.132;21.062;2023-04-15T11:46:01;99656.81;;;18.02;100.00
39341;BME280;25059;52.132;21.062;2023-04-15T11:48:46;99662.22;;;17.11;100.00
39341;BME280;25059;52.132;21.062;2023-04-15T11:51:32;99673.78;;;16.40;100.00
39341;BME280;25059;52.132;21.062;2023-04-15T11:54:18;99671.19;;;15.91;100.00
39341;BME280;25059;52.132;21.062;2023-04-15T11:57:03;99675.41;;;15.57;100.00
39341;BME280;25059;52.132;21.062;2023-04-15T11:59:55;99661.06;;;15.34;100.00
39341;BME280;25059;52.132;21.062;2023-04-15T12:02:40;99683.00;;;15.74;100.00
39341;BME280;25059;52.132;21.062;2023-04-15T12:05:26;99676.59;;;16.74;100.00
39341;BME280;25059;52.132;21.062;2023-04-15T12:08:11;99659.78;;;17.08;100.00
39341;BME280;25059;52.132;21.062;2023-04-15T12:10:58;99686.59;;;18.39;100.00
39341;BME280;25059;52.132;21.062;2023-04-15T12:13:45;99686.69;;;18.49;100.00
39341;BME280;25059;52.132;21.062;2023-04-15T12:16:30;99694.63;;;17.61;100.00
39341;BME280;25059;52.132;21.062;2023-04-15T12:19:22;99691.59;;;17.32;100.00
39341;BME280;25059;52.132;21.062;2023-04-15T12:22:10;99704.72;;;17.11;100.00
39341;BME280;25059;52.132;21.062;2023-04-15T12:24:55;99697.75;;;16.63;100.00
39341;BME280;25059;52.132;21.062;2023-04-15T12:27:40;99693.41;;;16.86;100.00
39341;BME280;25059;52.132;21.062;2023-04-15T12:30:25;99700.25;;;17.12;100.00
39341;BME280;25059;52.132;21.062;2023-04-15T12:33:10;99702.88;;;17.81;100.00
39341;BME280;25059;52.132;21.062;2023-04-15T12:35:55;99702.56;;;18.39;100.00
39341;BME280;25059;52.132;21.062;2023-04-15T12:38:40;99702.19;;;18.44;100.00
39341;BME280;25059;52.132;21.062;2023-04-15T12:41:24;99712.53;;;18.58;100.00
39341;BME280;25059;52.132;21.062;2023-04-15T12:44:09;99702.91;;;18.46;100.00
39341;BME280;25059;52.132;21.062;2023-04-15T12:46:54;99706.16;;;18.61;100.00
39341;BME280;25059;52.132;21.062;2023-04-15T12:49:39;99711.72;;;18.90;100.00
39341;BME280;25059;52.132;21.062;2023-04-15T12:52:24;99695.47;;;19.55;100.00
39341;BME280;25059;52.132;21.062;2023-04-15T12:55:08;99714.72;;;19.59;100.00
39341;BME280;25059;52.132;21.062;2023-04-15T12:57:53;99709.84;;;19.43;100.00
39341;BME280;25059;52.132;21.062;2023-04-15T13:00:38;99712.06;;;19.59;100.00
39341;BME280;25059;52.132;21.062;2023-04-15T13:03:22;99714.00;;;19.15;100.00
39341;BME280;25059;52.132;21.062;2023-04-15T13:06:07;99716.19;;;18.57;100.00
39341;BME280;25059;52.132;21.062;2023-04-15T13:08:52;99713.66;;;17.79;100.00
39341;BME280;25059;52.132;21.062;2023-04-15T13:11:38;99719.50;;;17.38;100.00
39341;BME280;25059;52.132;21.062;2023-04-15T13:14:22;99726.13;;;17.32;100.00
39341;BME280;25059;52.132;21.062;2023-04-15T13:17:08;99728.31;;;17.27;100.00
39341;BME280;25059;52.132;21.062;2023-04-15T13:19:54;99727.63;;;18.80;100.00
39341;BME280;25059;52.132;21.062;2023-04-15T13:22:39;99721.69;;;20.80;98.60
39341;BME280;25059;52.132;21.062;2023-04-15T13:25:24;99728.56;;;21.12;89.92
39341;BME280;25059;52.132;21.062;2023-04-15T13:28:10;99728.28;;;20.67;93.07
39341;BME280;25059;52.132;21.062;2023-04-15T13:30:55;99739.00;;;20.26;92.85
39341;BME280;25059;52.132;21.062;2023-04-15T13:33:42;99732.59;;;19.98;92.23
39341;BME280;25059;52.132;21.062;2023-04-15T13:36:28;99752.22;;;19.88;94.78
39341;BME280;25059;52.132;21.062;2023-04-15T13:39:13;99739.72;;;20.38;92.46
39341;BME280;25059;52.132;21.062;2023-04-15T13:41:57;99749.06;;;19.52;97.19
39341;BME280;25059;52.132;21.062;2023-04-15T13:44:42;99752.44;;;19.54;98.94
39341;BME280;25059;52.132;21.062;2023-04-15T13:47:26;99744.50;;;19.94;99.22
39341;BME280;25059;52.132;21.062;2023-04-15T13:50:11;99763.13;;;19.01;100.00
39341;BME280;25059;52.132;21.062;2023-04-15T13:52:56;99756.72;;;18.72;100.00
39341;BME280;25059;52.132;21.062;2023-04-15T13:55:41;99752.56;;;18.79;100.00
39341;BME280;25059;52.132;21.062;2023-04-15T13:58:26;99753.03;;;18.30;100.00
39341;BME280;25059;52.132;21.062;2023-04-15T14:01:10;99753.75;;;18.21;100.00
39341;BME280;25059;52.132;21.062;2023-04-15T14:03:55;99751.00;;;18.00;100.00
39341;BME280;25059;52.132;21.062;2023-04-15T14:06:39;99740.50;;;17.30;100.00
39341;BME280;25059;52.132;21.062;2023-04-15T14:09:24;99745.72;;;16.96;100.00
39341;BME280;25059;52.132;21.062;2023-04-15T14:12:09;99757.09;;;16.38;100.00
39341;BME280;25059;52.132;21.062;2023-04-15T14:14:54;99769.13;;;16.55;100.00
39341;BME280;25059;52.132;21.062;2023-04-15T14:17:39;99771.84;;;16.42;100.00
39341;BME280;25059;52.132;21.062;2023-04-15T14:20:25;99766.41;;;16.43;100.00
39341;BME280;25059;52.132;21.062;2023-04-15T14:23:10;99757.28;;;16.11;100.00
39341;BME280;25059;52.132;21.062;2023-04-15T14:25:55;99769.88;;;16.20;100.00